Time;durP1;ratioP1;P1;durP2;ratioP2;P2;SDS_P1;SDS_P2;PMS_P1;PMS_P2;Temp;Humidity;BMP_temperature;BMP_pressure;BME280_temperature;BME280_humidity;BME280_pressure;Samples;Min_cycle;Max_cycle;Signal;HPM_P1;HPM_P2
2021/09/30 00:00:40;;;;;;;22.25;9.13;;;;;;;16.82;100.00;102131.41;5101704;28;20023;-73
2021/09/30 00:03:26;;;;;;;19.60;8.80;;;;;;;16.54;100.00;102135.50;5115721;28;20015;-73
2021/09/30 00:06:11;;;;;;;20.20;8.52;;;;;;;15.99;100.00;102125.94;5116161;28;20039;-73
2021/09/30 00:08:57;;;;;;;23.45;9.05;;;;;;;15.91;100.00;102135.75;5114676;28;20020;-73
2021/09/30 00:11:47;;;;;;;20.00;8.68;;;;;;;15.95;100.00;102125.09;5116102;28;20115;-73
2021/09/30 00:42:08;;;;;;;21.17;10.68;;;;;;;15.65;100.00;102151.16;5115198;28;20058;-72
2021/09/30 00:48:19;;;;;;;17.13;10.30;;;;;;;15.87;100.00;102142.00;5115649;28;20455;-73
2021/09/30 02:30:28;;;;;;;25.15;11.13;;;;;;;14.85;100.00;102131.13;5113618;28;20023;-73
2021/09/30 03:00:53;;;;;;;20.42;11.38;;;;;;;14.71;100.00;102135.72;5117786;28;20507;-73
2021/09/30 03:03:41;;;;;;;21.63;10.73;;;;;;;14.84;100.00;102137.31;5116236;28;20092;-74
2021/09/30 03:06:28;;;;;;;22.33;10.85;;;;;;;14.96;100.00;102142.44;5102789;28;20432;-73
2021/09/30 03:09:18;;;;;;;21.30;11.73;;;;;;;14.76;100.00;102142.66;5116424;28;20316;-73
2021/09/30 03:12:08;;;;;;;22.20;11.55;;;;;;;14.89;100.00;102148.66;5103418;28;20031;-73
2021/09/30 03:23:46;;;;;;;27.52;14.25;;;;;;;14.69;100.00;102145.41;5116879;28;20034;-74
2021/09/30 03:26:32;;;;;;;33.72;14.13;;;;;;;14.71;100.00;102151.53;5115883;28;20035;-73
2021/09/30 03:29:19;;;;;;;24.05;14.35;;;;;;;14.33;100.00;102149.31;5102200;28;20039;-73
2021/09/30 03:32:06;;;;;;;30.25;13.95;;;;;;;14.47;100.00;102147.41;5116716;28;20028;-73
2021/09/30 03:34:52;;;;;;;28.52;13.75;;;;;;;14.60;100.00;102146.38;5101883;28;20061;-73
2021/09/30 03:37:38;;;;;;;25.95;14.30;;;;;;;13.98;100.00;102156.63;5088825;28;20372;-73
2021/09/30 03:40:24;;;;;;;28.25;14.82;;;;;;;14.02;100.00;102152.19;5115822;28;20019;-72
2021/09/30 03:43:11;;;;;;;26.67;14.77;;;;;;;14.23;100.00;102154.69;5117056;28;20027;-74
2021/09/30 03:45:57;;;;;;;24.42;13.75;;;;;;;14.25;100.00;102151.16;5116673;28;20047;-72
2021/09/30 03:48:51;;;;;;;25.88;15.02;;;;;;;14.15;100.00;102161.78;5101913;28;20027;-73
2021/09/30 03:57:36;;;;;;;30.98;14.60;;;;;;;14.50;100.00;102157.91;5116418;28;20031;-73
2021/09/30 04:00:22;;;;;;;29.38;13.75;;;;;;;14.11;100.00;102168.81;5100096;28;20455;-73
2021/09/30 04:03:08;;;;;;;26.08;13.82;;;;;;;14.11;100.00;102174.09;5116752;28;20110;-73
2021/09/30 04:05:54;;;;;;;22.42;14.55;;;;;;;14.12;100.00;102167.91;5115941;28;20172;-73
2021/09/30 04:08:40;;;;;;;21.92;13.02;;;;;;;14.08;100.00;102170.59;5100611;28;20183;-73
2021/09/30 04:11:26;;;;;;;27.27;13.52;;;;;;;13.77;100.00;102182.28;5116520;28;20039;-74
2021/09/30 04:14:11;;;;;;;26.45;13.60;;;;;;;13.59;100.00;102178.00;5116065;28;20027;-73
2021/09/30 04:16:57;;;;;;;26.13;13.98;;;;;;;13.90;100.00;102174.25;5115646;28;20463;-73
2021/09/30 04:19:43;;;;;;;23.05;13.23;;;;;;;13.96;100.00;102174.22;5116299;28;20063;-73
2021/09/30 04:22:29;;;;;;;27.60;14.63;;;;;;;14.12;100.00;102181.09;5116114;28;20039;-74
2021/09/30 04:25:14;;;;;;;28.55;15.48;;;;;;;13.44;100.00;102185.13;5099369;28;20483;-74
2021/09/30 04:28:00;;;;;;;30.02;15.95;;;;;;;13.53;100.00;102185.97;5102037;28;20032;-73
2021/09/30 04:30:46;;;;;;;31.83;16.55;;;;;;;13.99;100.00;102183.88;5115259;28;20039;-73
2021/09/30 04:33:32;;;;;;;28.85;15.82;;;;;;;13.68;100.00;102193.75;5115900;28;20031;-72
2021/09/30 04:36:18;;;;;;;33.45;16.45;;;;;;;13.28;100.00;102189.63;5099195;28;20069;-73
2021/09/30 04:39:04;;;;;;;29.67;14.98;;;;;;;13.44;100.00;102193.03;5114839;28;20023;-73
2021/09/30 04:41:50;;;;;;;30.15;15.10;;;;;;;13.22;100.00;102192.25;5114980;28;20092;-74
2021/09/30 04:44:36;;;;;;;40.50;15.38;;;;;;;13.62;100.00;102193.78;5102550;28;20060;-73
2021/09/30 04:47:22;;;;;;;33.80;15.88;;;;;;;13.71;100.00;102193.72;5115442;28;20048;-73
2021/09/30 04:50:09;;;;;;;38.80;16.23;;;;;;;13.50;100.00;102203.50;5115348;28;20028;-72
2021/09/30 04:53:00;;;;;;;30.58;14.82;;;;;;;13.57;100.00;102192.06;5115047;28;20038;-73
2021/09/30 04:55:46;;;;;;;32.42;16.52;;;;;;;13.44;100.00;102200.94;5114715;28;20131;-74
2021/09/30 04:58:32;;;;;;;33.78;15.65;;;;;;;13.77;100.00;102208.63;5114658;28;20055;-74
2021/09/30 05:01:18;;;;;;;33.42;15.98;;;;;;;13.89;100.00;102201.50;5113692;28;20031;-74
2021/09/30 05:04:03;;;;;;;33.60;15.95;;;;;;;13.83;100.00;102209.44;5114592;28;20432;-73
2021/09/30 05:06:51;;;;;;;32.40;15.25;;;;;;;13.57;100.00;102206.13;5115351;28;20114;-73
2021/09/30 05:09:38;;;;;;;32.92;15.57;;;;;;;13.52;100.00;102201.75;5114181;28;20031;-73
2021/09/30 05:12:25;;;;;;;37.53;16.10;;;;;;;13.44;100.00;102214.97;5115543;28;20050;-73
2021/09/30 05:15:10;;;;;;;30.02;15.35;;;;;;;13.13;100.00;102221.25;5114540;28;20420;-73
2021/09/30 05:17:56;;;;;;;33.30;14.70;;;;;;;12.81;100.00;102214.31;5115230;28;20015;-73
2021/09/30 05:20:42;;;;;;;31.02;14.93;;;;;;;12.85;100.00;102219.56;5115360;28;20439;-73
2021/09/30 05:23:28;;;;;;;33.28;14.70;;;;;;;13.00;100.00;102224.81;5115625;28;20070;-73
2021/09/30 05:26:15;;;;;;;35.35;16.05;;;;;;;13.03;100.00;102222.16;5114581;28;20030;-73
2021/09/30 05:29:00;;;;;;;30.58;14.77;;;;;;;12.55;100.00;102219.66;5100507;28;20031;-73
2021/09/30 05:31:46;;;;;;;36.15;14.73;;;;;;;12.46;100.00;102227.53;5114324;28;20062;-72
2021/09/30 05:34:32;;;;;;;39.08;15.07;;;;;;;12.45;100.00;102228.41;5114658;28;20024;-73
2021/09/30 05:37:18;;;;;;;34.42;15.75;;;;;;;12.56;100.00;102224.03;5114535;28;20118;-72
2021/09/30 05:40:04;;;;;;;37.25;16.13;;;;;;;12.90;100.00;102228.31;5114217;28;20028;-72
2021/09/30 05:42:53;;;;;;;34.85;15.88;;;;;;;13.17;100.00;102230.91;5115588;28;20027;-73
2021/09/30 05:45:43;;;;;;;28.33;15.88;;;;;;;12.95;100.00;102236.22;5113450;28;20509;-74
2021/09/30 05:48:29;;;;;;;49.38;25.80;;;;;;;13.22;100.00;102229.13;5113461;28;20035;-72
2021/09/30 05:51:14;;;;;;;38.35;16.25;;;;;;;13.19;100.00;102231.75;5114157;28;20103;-73
2021/09/30 05:54:00;;;;;;;39.22;17.17;;;;;;;13.15;100.00;102235.28;5115033;28;20031;-73
2021/09/30 05:56:46;;;;;;;35.53;16.67;;;;;;;12.88;100.00;102238.00;5114301;28;20375;-72
2021/09/30 05:59:32;;;;;;;36.05;15.43;;;;;;;13.48;100.00;102242.16;5114560;28;20031;-73
2021/09/30 06:14:22;;;;;;;32.72;15.52;;;;;;;12.96;100.00;102238.84;5114026;28;20020;-73
2021/09/30 06:17:08;;;;;;;28.00;14.55;;;;;;;13.74;100.00;102240.25;5113563;28;20020;-73
2021/09/30 06:19:54;;;;;;;32.50;15.27;;;;;;;13.53;100.00;102241.25;5114543;28;20389;-73
2021/09/30 06:22:40;;;;;;;35.35;16.30;;;;;;;13.94;100.00;102244.50;5118936;28;20507;-73
2021/09/30 06:25:26;;;;;;;37.10;16.77;;;;;;;14.16;100.00;102240.81;5118067;28;20035;-73
2021/09/30 06:28:12;;;;;;;33.58;17.20;;;;;;;14.25;100.00;102243.44;5117432;28;20038;-73
2021/09/30 06:30:57;;;;;;;41.38;18.08;;;;;;;14.43;100.00;102237.13;5117397;28;20042;-73
2021/09/30 06:33:43;;;;;;;34.20;20.38;;;;;;;14.15;100.00;102244.34;5117421;28;20333;-75
2021/09/30 06:36:30;;;;;;;34.88;18.02;;;;;;;14.80;100.00;102226.16;5118633;28;20019;-74
2021/09/30 06:39:16;;;;;;;32.70;17.95;;;;;;;15.18;100.00;102240.72;5103700;28;20088;-73
2021/09/30 06:42:02;;;;;;;32.83;18.40;;;;;;;15.82;100.00;102238.97;5101966;28;20015;-74
2021/09/30 06:44:48;;;;;;;32.42;16.90;;;;;;;15.26;100.00;102246.78;5118372;28;20513;-74
2021/09/30 06:47:37;;;;;;;32.47;16.40;;;;;;;15.37;100.00;102251.06;5116238;28;20059;-73
2021/09/30 06:50:23;;;;;;;37.75;17.10;;;;;;;15.79;100.00;102250.47;5103182;28;20031;-74
2021/09/30 06:53:09;;;;;;;35.53;17.35;;;;;;;14.93;100.00;102247.16;5117440;28;20120;-73
2021/09/30 06:56:00;;;;;;;37.88;17.30;;;;;;;15.51;100.00;102257.03;5118239;28;20063;-74
2021/09/30 06:58:47;;;;;;;36.95;17.33;;;;;;;15.93;100.00;102258.19;5102814;28;20351;-73
2021/09/30 07:01:35;;;;;;;43.47;18.17;;;;;;;14.93;100.00;102253.31;5101111;28;20059;-74
2021/09/30 07:04:20;;;;;;;40.20;19.50;;;;;;;15.40;100.00;102258.06;5116892;28;20128;-72
2021/09/30 07:07:06;;;;;;;38.95;18.05;;;;;;;15.56;100.00;102255.22;5117296;28;20054;-73
2021/09/30 07:09:52;;;;;;;35.25;16.10;;;;;;;16.16;100.00;102249.00;5117179;28;20028;-72
2021/09/30 07:12:39;;;;;;;28.33;15.45;;;;;;;16.07;100.00;102251.78;5117861;28;20472;-73
2021/09/30 07:15:25;;;;;;;32.17;16.10;;;;;;;16.41;100.00;102252.16;5100887;28;20027;-74
2021/09/30 07:18:12;;;;;;;51.90;17.40;;;;;;;16.75;100.00;102243.59;5117236;28;20031;-73
2021/09/30 07:21:00;;;;;;;39.83;17.95;;;;;;;16.58;100.00;102250.09;5100738;28;20035;-74
2021/09/30 07:23:46;;;;;;;36.55;16.95;;;;;;;17.02;100.00;102244.84;5102351;28;20031;-73
2021/09/30 07:26:31;;;;;;;37.53;17.00;;;;;;;17.52;100.00;102252.66;5118052;28;20042;-73
2021/09/30 07:29:17;;;;;;;32.15;16.42;;;;;;;17.35;100.00;102252.09;5116539;28;20111;-73
2021/09/30 07:32:04;;;;;;;37.20;18.05;;;;;;;17.29;100.00;102252.25;5115341;28;20031;-73
2021/09/30 07:34:50;;;;;;;35.88;16.67;;;;;;;16.55;100.00;102253.66;5116433;28;20031;-73
2021/09/30 07:37:36;;;;;;;39.83;17.00;;;;;;;16.05;100.00;102252.72;5116186;28;20031;-73
2021/09/30 07:40:23;;;;;;;39.70;17.25;;;;;;;16.66;100.00;102254.34;5117498;28;20023;-74
2021/09/30 07:43:09;;;;;;;47.40;17.75;;;;;;;16.74;100.00;102249.78;5117312;28;20031;-73
2021/09/30 07:45:55;;;;;;;38.25;16.67;;;;;;;17.50;100.00;102252.69;5116411;28;20099;-73
2021/09/30 07:48:40;;;;;;;30.77;14.27;;;;;;;17.13;100.00;102250.81;5116771;28;20386;-73
2021/09/30 07:51:26;;;;;;;33.20;13.98;;;;;;;17.66;100.00;102251.47;5115181;28;20069;-73
2021/09/30 07:54:14;;;;;;;36.92;15.18;;;;;;;18.07;100.00;102254.03;5115939;28;20394;-73
2021/09/30 07:56:59;;;;;;;36.40;15.18;;;;;;;16.99;100.00;102253.72;5116275;28;20119;-73
2021/09/30 07:59:45;;;;;;;35.08;14.10;;;;;;;17.56;100.00;102249.06;5115469;28;20106;-73
2021/09/30 08:02:31;;;;;;;29.83;14.82;;;;;;;18.66;100.00;102242.78;5116847;28;20028;-74
2021/09/30 08:05:17;;;;;;;32.40;14.05;;;;;;;19.14;100.00;102246.75;5115613;28;20400;-73
2021/09/30 08:08:08;;;;;;;30.02;13.90;;;;;;;19.36;100.00;102246.19;5116299;28;20059;-73
2021/09/30 08:10:53;;;;;;;34.40;14.60;;;;;;;18.58;100.00;102230.66;5100100;28;20071;-73
2021/09/30 08:13:39;;;;;;;28.38;13.02;;;;;;;18.72;100.00;102231.13;5116025;28;20415;-73
2021/09/30 08:16:27;;;;;;;26.85;12.00;;;;;;;19.38;100.00;102239.03;5115946;28;20038;-73
2021/09/30 08:19:13;;;;;;;19.50;11.25;;;;;;;20.41;100.00;102229.53;5115980;28;20024;-73
2021/09/30 08:21:59;;;;;;;24.67;12.35;;;;;;;20.47;100.00;102234.63;5115960;28;20023;-74
2021/09/30 08:24:44;;;;;;;20.48;11.07;;;;;;;20.72;99.48;102239.06;5101772;28;20061;-74
2021/09/30 08:27:30;;;;;;;22.80;11.18;;;;;;;20.76;99.04;102229.16;5100065;28;20024;-73
2021/09/30 08:30:16;;;;;;;31.88;12.27;;;;;;;21.15;96.35;102233.97;5114362;28;20347;-73
2021/09/30 08:33:03;;;;;;;24.88;11.65;;;;;;;20.46;100.00;102225.78;5115734;28;20094;-73
2021/09/30 08:35:50;;;;;;;26.05;12.20;;;;;;;20.32;100.00;102233.38;5115425;28;20444;-74
2021/09/30 08:38:36;;;;;;;24.65;11.05;;;;;;;20.40;97.65;102236.63;5114160;28;20027;-72
2021/09/30 08:41:22;;;;;;;22.77;11.07;;;;;;;20.23;100.00;102233.69;5116309;28;20136;-73
2021/09/30 08:44:08;;;;;;;17.88;10.23;;;;;;;20.91;97.38;102231.28;5101340;28;20106;-72
2021/09/30 08:46:54;;;;;;;26.02;9.63;;;;;;;20.91;95.48;102233.94;5115296;28;20126;-72
2021/09/30 08:49:40;;;;;;;21.10;10.30;;;;;;;20.71;96.03;102225.78;5115609;28;20452;-72
2021/09/30 08:52:26;;;;;;;25.70;10.50;;;;;;;21.08;94.72;102231.56;5115646;28;20059;-71
2021/09/30 08:55:11;;;;;;;22.52;10.27;;;;;;;20.82;97.06;102229.81;5100835;28;20379;-72
2021/09/30 08:58:02;;;;;;;26.08;11.10;;;;;;;20.41;93.71;102232.19;5115606;28;20121;-72
2021/09/30 09:00:52;;;;;;;20.00;7.72;;;;;;;20.27;91.81;102226.44;5115154;28;20031;-73
2021/09/30 09:03:40;;;;;;;21.20;7.07;;;;;;;20.62;85.82;102226.97;5115090;28;20065;-72
2021/09/30 09:06:32;;;;;;;18.55;7.43;;;;;;;20.69;84.87;102228.50;5115129;28;20141;-73
2021/09/30 09:09:19;;;;;;;16.85;7.75;;;;;;;21.17;83.99;102224.09;5115414;28;20020;-71
2021/09/30 09:12:08;;;;;;;24.02;7.93;;;;;;;21.02;80.66;102218.47;5115176;28;20093;-72
2021/09/30 09:14:54;;;;;;;16.15;6.60;;;;;;;21.20;74.97;102216.00;5099887;28;20023;-73
2021/09/30 09:17:48;;;;;;;11.80;6.03;;;;;;;21.74;73.01;102227.22;5101120;28;20043;-73
2021/09/30 09:20:34;;;;;;;13.35;7.28;;;;;;;22.23;74.53;102229.63;5100320;28;20032;-72
2021/09/30 09:23:20;;;;;;;16.35;8.07;;;;;;;21.00;86.46;102221.19;5115461;28;20023;-73
2021/09/30 09:26:11;;;;;;;20.05;7.68;;;;;;;20.46;79.89;102214.25;5114530;28;20024;-72
2021/09/30 09:29:02;;;;;;;17.40;7.22;;;;;;;20.44;79.67;102221.41;5114786;28;20035;-72
2021/09/30 09:31:52;;;;;;;18.98;6.80;;;;;;;21.69;72.55;102209.63;5114286;28;20042;-72
2021/09/30 09:34:39;;;;;;;18.35;6.88;;;;;;;21.18;74.84;102217.00;5115658;28;20042;-72
2021/09/30 09:37:32;;;;;;;14.55;7.10;;;;;;;21.22;74.38;102207.94;5112855;28;20019;-74
2021/09/30 09:40:20;;;;;;;20.92;7.10;;;;;;;21.33;73.95;102211.94;5099705;28;20031;-73
2021/09/30 09:43:48;;;;;;;17.27;6.20;;;;;;;20.75;67.81;102209.66;5099779;28;20027;-72
2021/09/30 09:46:40;;;;;;;17.90;6.85;;;;;;;20.99;67.18;102203.47;5114194;28;20070;-73
2021/09/30 09:49:25;;;;;;;12.48;5.53;;;;;;;20.32;56.03;102200.53;5114203;28;20034;-72
2021/09/30 09:52:11;;;;;;;31.38;15.48;;;;;;;20.57;57.19;102207.63;5114770;28;20024;-72
2021/09/30 09:54:57;;;;;;;15.95;5.50;;;;;;;21.06;55.20;102202.28;5114160;28;20027;-72
2021/09/30 09:57:59;;;;;;;18.65;5.75;;;;;;;21.20;56.24;102204.44;5113825;28;20444;-73
2021/09/30 10:00:50;;;;;;;11.73;5.68;;;;;;;21.12;56.86;102201.19;5114479;28;20036;-73
2021/09/30 10:03:37;;;;;;;13.65;6.05;;;;;;;20.79;57.34;102207.75;5113155;28;20046;-73
2021/09/30 10:06:29;;;;;;;10.95;5.80;;;;;;;21.13;56.57;102198.50;5114186;28;20020;-74
2021/09/30 10:09:15;;;;;;;12.40;5.97;;;;;;;20.83;59.60;102207.59;5113338;28;20020;-73
2021/09/30 10:12:01;;;;;;;12.18;5.70;;;;;;;20.65;61.28;102200.25;5114474;28;20488;-73
2021/09/30 10:14:47;;;;;;;13.20;5.65;;;;;;;21.06;58.38;102194.31;5114200;28;20096;-73
2021/09/30 10:17:33;;;;;;;15.80;5.55;;;;;;;20.63;57.29;102183.47;5100342;28;20024;-73
2021/09/30 10:20:19;;;;;;;14.90;5.65;;;;;;;21.42;56.01;102187.56;5114719;28;20035;-73
2021/09/30 10:23:08;;;;;;;13.70;5.47;;;;;;;20.93;55.71;102184.19;5099620;28;20032;-73
2021/09/30 10:25:58;;;;;;;13.45;5.65;;;;;;;20.84;57.20;102184.47;5099154;28;20050;-73
2021/09/30 10:28:45;;;;;;;13.00;5.68;;;;;;;20.62;56.67;102186.16;5114561;28;20120;-73
2021/09/30 10:31:34;;;;;;;13.13;5.22;;;;;;;20.93;55.42;102174.38;5113676;28;20032;-73
2021/09/30 10:34:29;;;;;;;10.30;5.32;;;;;;;20.92;54.99;102172.63;5114427;28;20024;-73
2021/09/30 10:37:20;;;;;;;13.35;5.40;;;;;;;21.11;53.14;102176.38;5099086;28;20028;-73
2021/09/30 10:40:19;;;;;;;12.18;5.25;;;;;;;21.31;52.53;102170.25;5113947;28;20047;-73
2021/09/30 10:43:22;;;;;;;12.10;5.32;;;;;;;21.65;53.35;102163.53;5114016;28;20036;-73
2021/09/30 10:46:33;;;;;;;13.80;4.72;;;;;;;21.80;53.34;102172.75;5114454;28;20051;-73
2021/09/30 10:49:42;;;;;;;17.85;6.18;;;;;;;21.25;57.25;102173.16;5113004;28;20059;-73
2021/09/30 10:52:31;;;;;;;16.45;5.53;;;;;;;21.18;57.92;102177.84;5099370;28;20027;-73
2021/09/30 10:55:17;;;;;;;10.95;5.05;;;;;;;21.39;57.86;102162.84;5099008;28;20069;-72
2021/09/30 10:58:20;;;;;;;10.35;5.85;;;;;;;21.84;55.18;102161.91;5100156;28;20020;-72
2021/09/30 11:01:13;;;;;;;13.48;5.13;;;;;;;21.71;54.01;102168.69;5114359;28;20051;-71
2021/09/30 11:04:04;;;;;;;8.82;5.35;;;;;;;21.90;53.21;102164.31;5113960;28;20036;-73
2021/09/30 11:07:10;;;;;;;10.43;5.03;;;;;;;22.02;53.83;102171.81;5114493;28;20092;-72
2021/09/30 11:10:31;;;;;;;20.80;10.05;;;;;;;22.18;53.11;102158.69;5117508;28;20042;-72
2021/09/30 11:13:19;;;;;;;11.23;5.65;;;;;;;22.04;53.65;102153.06;5015923;28;20430;-73
2021/09/30 11:16:10;;;;;;;15.48;5.63;;;;;;;22.47;52.56;102144.97;5103360;28;20023;-73
2021/09/30 11:18:57;;;;;;;12.73;5.47;;;;;;;21.68;52.70;102151.88;5117516;28;20348;-73
2021/09/30 11:21:45;;;;;;;12.32;5.57;;;;;;;21.59;53.97;102145.13;5117684;28;20027;-72
2021/09/30 11:24:41;;;;;;;12.32;5.20;;;;;;;21.56;55.03;102145.25;5117222;28;20379;-73
2021/09/30 11:27:32;;;;;;;11.73;5.40;;;;;;;21.67;53.02;102136.81;5101341;28;20368;-73
2021/09/30 11:30:24;;;;;;;9.45;4.88;;;;;;;22.32;51.16;102138.47;5116700;28;20039;-72
2021/09/30 11:33:10;;;;;;;13.05;5.28;;;;;;;23.03;49.59;102138.78;5116139;28;20364;-75
2021/09/30 11:36:00;;;;;;;9.77;5.30;;;;;;;23.47;48.76;102136.75;5117043;28;20031;-72
2021/09/30 11:38:46;;;;;;;11.95;5.35;;;;;;;23.92;46.25;102130.94;5115531;28;20027;-73
2021/09/30 11:41:34;;;;;;;14.20;5.35;;;;;;;23.38;45.82;102133.63;5117983;28;20084;-73
2021/09/30 11:44:21;;;;;;;12.15;5.28;;;;;;;22.99;45.53;102134.53;5117436;28;20107;-73
2021/09/30 11:47:07;;;;;;;9.18;4.70;;;;;;;23.63;45.41;102134.19;5115267;28;20435;-73
2021/09/30 11:49:54;;;;;;;9.15;4.70;;;;;;;23.15;45.88;102140.91;5115926;28;20337;-73
2021/09/30 11:52:40;;;;;;;13.40;5.47;;;;;;;23.50;44.73;102127.69;5101785;28;20028;-72
2021/09/30 11:55:27;;;;;;;7.63;4.75;;;;;;;23.77;43.29;102120.97;5116485;28;20019;-72
2021/09/30 11:58:14;;;;;;;15.23;9.30;;;;;;;24.28;42.73;102124.59;5115972;28;20096;-73
2021/09/30 12:01:00;;;;;;;9.35;4.97;;;;;;;24.60;41.04;102123.78;5117440;28;20034;-73
2021/09/30 12:03:46;;;;;;;10.05;4.20;;;;;;;25.41;39.06;102121.97;5116465;28;20116;-72
2021/09/30 12:06:42;;;;;;;11.32;4.45;;;;;;;24.15;40.25;102119.94;5117062;28;20168;-73
2021/09/30 12:09:32;;;;;;;9.00;4.60;;;;;;;23.95;40.07;102114.75;5101344;28;20110;-72
2021/09/30 12:12:25;;;;;;;10.68;4.63;;;;;;;23.75;39.76;102110.31;5101940;28;20040;-73
2021/09/30 12:15:12;;;;;;;9.93;4.22;;;;;;;23.78;39.77;102107.50;5101026;28;20031;-73
2021/09/30 12:17:58;;;;;;;11.10;4.28;;;;;;;23.14;40.89;102112.44;5116805;28;20098;-73
2021/09/30 12:20:49;;;;;;;8.25;4.20;;;;;;;23.60;40.85;102107.56;5115867;28;20031;-72
2021/09/30 12:23:34;;;;;;;15.85;4.80;;;;;;;23.90;40.63;102106.03;5116450;28;20043;-73
2021/09/30 12:26:20;;;;;;;9.20;4.10;;;;;;;24.09;39.57;102109.53;5114348;28;20404;-73
2021/09/30 12:29:06;;;;;;;8.77;4.40;;;;;;;24.03;39.97;102107.19;5114999;28;20034;-72
2021/09/30 12:32:03;;;;;;;8.65;4.55;;;;;;;23.18;40.56;102106.00;5115777;28;20456;-73
2021/09/30 12:34:59;;;;;;;9.40;4.78;;;;;;;23.23;41.72;102104.00;5116682;28;20032;-73
2021/09/30 12:37:47;;;;;;;8.63;4.15;;;;;;;22.79;41.66;102104.31;5115173;28;20085;-72
2021/09/30 12:40:51;;;;;;;8.00;4.45;;;;;;;23.18;41.96;102105.13;5115364;28;20055;-73
2021/09/30 12:43:38;;;;;;;9.15;4.13;;;;;;;23.57;41.16;102097.00;5116291;28;20042;-73
2021/09/30 12:46:24;;;;;;;9.38;5.20;;;;;;;23.09;41.56;102093.06;5115310;28;20051;-74
2021/09/30 12:49:10;;;;;;;10.60;6.43;;;;;;;23.31;41.08;102104.50;5115682;28;20047;-72
2021/09/30 12:51:56;;;;;;;15.55;10.00;;;;;;;24.18;40.30;102101.03;5100912;28;20024;-74
2021/09/30 12:54:44;;;;;;;11.98;4.85;;;;;;;23.86;40.48;102099.13;5100652;28;20023;-73
2021/09/30 12:57:35;;;;;;;10.38;4.10;;;;;;;23.84;41.03;102100.97;5115400;28;20088;-73
2021/09/30 13:00:22;;;;;;;10.93;4.43;;;;;;;23.43;41.14;102092.34;5115207;28;20028;-73
2021/09/30 13:03:15;;;;;;;9.10;4.78;;;;;;;23.47;40.43;102085.03;5114248;28;20023;-72
2021/09/30 13:06:01;;;;;;;11.95;5.07;;;;;;;23.48;41.06;102082.28;5115125;28;20428;-72
2021/09/30 13:08:47;;;;;;;8.82;5.20;;;;;;;23.65;42.60;102093.00;5115100;28;20124;-73
2021/09/30 13:11:36;;;;;;;8.90;5.38;;;;;;;23.43;44.32;102087.84;5115012;28;20467;-73
2021/09/30 13:14:24;;;;;;;13.88;6.00;;;;;;;23.38;46.33;102090.84;5114311;28;20027;-73
2021/09/30 13:17:13;;;;;;;13.50;6.50;;;;;;;23.15;48.20;102091.91;5115051;28;20364;-73
2021/09/30 13:20:04;;;;;;;10.00;6.07;;;;;;;23.09;49.14;102093.06;5114066;28;20115;-73
2021/09/30 13:22:50;;;;;;;15.90;6.60;;;;;;;23.18;48.64;102084.59;5114554;28;20120;-73
2021/09/30 13:25:37;;;;;;;12.25;6.20;;;;;;;23.11;49.36;102084.97;5100055;28;20047;-73
2021/09/30 13:28:23;;;;;;;12.52;6.25;;;;;;;22.61;50.94;102091.78;5114615;28;20098;-73
2021/09/30 13:31:08;;;;;;;14.23;6.53;;;;;;;22.56;51.61;102085.78;5114332;28;20106;-72
2021/09/30 13:33:54;;;;;;;15.25;6.35;;;;;;;22.24;53.28;102083.66;5115303;28;20425;-73
2021/09/30 13:36:40;;;;;;;13.38;6.85;;;;;;;22.35;53.86;102076.88;5114860;28;20032;-74
2021/09/30 13:39:26;;;;;;;12.98;7.15;;;;;;;21.65;57.07;102064.81;5114475;28;20471;-73
2021/09/30 13:42:12;;;;;;;15.73;6.70;;;;;;;22.18;55.92;102070.59;5113916;28;20041;-72
2021/09/30 13:44:59;;;;;;;14.25;6.90;;;;;;;21.87;56.96;102073.69;5114428;28;20085;-72
2021/09/30 13:47:45;;;;;;;16.30;6.57;;;;;;;21.76;58.46;102070.63;5115322;28;20036;-72
2021/09/30 13:50:33;;;;;;;13.73;6.65;;;;;;;22.06;56.58;102065.78;5099669;28;20063;-73
2021/09/30 13:53:21;;;;;;;10.70;6.20;;;;;;;21.88;57.52;102071.88;5100199;28;20032;-72
2021/09/30 13:56:07;;;;;;;12.02;6.25;;;;;;;21.58;58.57;102063.34;5113798;28;20030;-73
2021/09/30 13:58:53;;;;;;;12.15;6.20;;;;;;;21.48;59.37;102058.44;5115725;28;20019;-73
2021/09/30 14:01:39;;;;;;;10.25;6.15;;;;;;;21.39;61.13;102059.72;5099772;28;20454;-73
2021/09/30 14:04:25;;;;;;;16.38;6.90;;;;;;;21.76;59.76;102059.06;5113792;28;20032;-73
2021/09/30 14:07:10;;;;;;;12.73;6.70;;;;;;;21.84;59.99;102054.28;5115811;28;20074;-72
2021/09/30 14:09:58;;;;;;;10.77;6.32;;;;;;;21.75;60.24;102057.34;5114891;28;20325;-72
2021/09/30 14:12:45;;;;;;;11.45;5.70;;;;;;;21.64;58.70;102054.22;5114717;28;20024;-73
2021/09/30 14:15:33;;;;;;;11.48;5.80;;;;;;;21.43;59.53;102060.44;5099519;28;20046;-72
2021/09/30 14:18:18;;;;;;;14.18;6.07;;;;;;;20.86;60.55;102060.06;5114269;28;20134;-72
2021/09/30 14:21:05;;;;;;;13.80;7.00;;;;;;;20.90;61.86;102065.19;5099683;28;20169;-72
2021/09/30 14:23:51;;;;;;;13.02;6.25;;;;;;;20.46;63.45;102062.47;5114891;28;20020;-73
2021/09/30 14:26:37;;;;;;;13.43;7.10;;;;;;;20.83;64.04;102058.38;5099659;28;20027;-72
2021/09/30 14:29:23;;;;;;;11.80;7.47;;;;;;;21.29;62.97;102062.78;5113147;28;20024;-72
2021/09/30 14:32:11;;;;;;;16.23;6.97;;;;;;;20.91;65.93;102055.41;5114237;28;20109;-72
2021/09/30 14:34:56;;;;;;;10.82;6.80;;;;;;;21.06;65.25;102055.69;5114462;28;20027;-73
2021/09/30 14:37:42;;;;;;;13.55;6.43;;;;;;;21.19;64.43;102048.97;5112697;28;20020;-72
2021/09/30 14:40:28;;;;;;;10.75;6.15;;;;;;;20.74;67.14;102053.38;5114659;28;20027;-72
2021/09/30 14:43:14;;;;;;;15.20;6.75;;;;;;;21.01;66.81;102051.50;5102964;28;20024;-72
2021/09/30 14:46:00;;;;;;;17.95;6.53;;;;;;;21.01;68.91;102054.19;5118088;28;20365;-72
2021/09/30 14:48:45;;;;;;;12.13;7.68;;;;;;;21.10;69.11;102048.47;5117726;28;20511;-73
2021/09/30 14:51:31;;;;;;;19.25;12.77;;;;;;;20.94;70.46;102034.88;5118233;28;20035;-72
2021/09/30 14:54:17;;;;;;;15.90;10.32;;;;;;;21.18;70.02;102049.03;5117337;28;20027;-73
2021/09/30 14:57:03;;;;;;;10.32;7.28;;;;;;;20.52;73.03;102048.94;5117244;28;20118;-74
2021/09/30 14:59:49;;;;;;;10.70;7.43;;;;;;;20.23;75.78;102046.47;5102959;28;20031;-72
2021/09/30 15:02:35;;;;;;;20.33;8.05;;;;;;;20.18;73.71;102053.75;5116826;28;20108;-72
2021/09/30 15:05:21;;;;;;;16.92;8.40;;;;;;;20.12;68.99;102053.97;5117691;28;20386;-72
2021/09/30 15:08:07;;;;;;;17.92;8.02;;;;;;;20.26;67.19;102054.34;5102275;28;20505;-72
2021/09/30 15:10:52;;;;;;;23.35;8.35;;;;;;;19.64;67.52;102060.97;5117015;28;20032;-72
2021/09/30 15:13:38;;;;;;;20.13;8.13;;;;;;;19.77;66.29;102056.97;5117507;28;20056;-73
2021/09/30 15:16:26;;;;;;;21.38;8.02;;;;;;;19.75;65.91;102058.78;5117395;28;20042;-73
2021/09/30 15:19:21;;;;;;;26.67;8.32;;;;;;;19.42;66.31;102055.47;5117177;28;20027;-72
2021/09/30 15:22:07;;;;;;;21.80;8.50;;;;;;;19.83;65.38;102056.75;5117444;28;20035;-72
2021/09/30 15:24:52;;;;;;;16.95;8.15;;;;;;;19.87;65.01;102053.94;5117469;28;20114;-72
2021/09/30 15:27:38;;;;;;;16.30;7.80;;;;;;;19.84;65.52;102063.81;5102392;28;20016;-72
2021/09/30 15:30:24;;;;;;;14.32;6.50;;;;;;;19.54;67.15;102062.19;5116294;28;20031;-73
2021/09/30 15:33:12;;;;;;;16.08;6.28;;;;;;;19.54;67.96;102067.50;5115213;28;20027;-72
2021/09/30 15:35:58;;;;;;;10.70;6.30;;;;;;;20.04;65.79;102070.19;5117111;28;20443;-72
2021/09/30 15:38:44;;;;;;;12.27;6.70;;;;;;;19.97;65.92;102065.97;5116284;28;20370;-73
2021/09/30 15:41:30;;;;;;;12.52;6.75;;;;;;;19.69;70.20;102064.34;5116936;28;20126;-73
2021/09/30 15:44:19;;;;;;;11.30;6.25;;;;;;;19.66;72.95;102062.66;5116765;28;20567;-73
2021/09/30 15:47:05;;;;;;;11.05;6.70;;;;;;;19.71;74.41;102075.78;5115405;28;20079;-73
2021/09/30 15:49:51;;;;;;;16.20;6.85;;;;;;;19.44;79.08;102079.34;5101643;28;20020;-72